Terminal Aerodrome Forecast
Issued by NWS

Home | Current Version | Previous Version | Text Only | Print | Product List | Glossary On
Versions: 1 2 3 4 5 6 7 8 9 10 11 12 13 14 15 16 17 18 19 20 21 22
318
FTUS41 KBGM 251120
TAFELM
TAF
KELM 251120Z 2512/2612 24004KT P6SM BKN050 OVC100
      TEMPO 2512/2516 -SHRA OVC035
     FM251700 23008G18KT P6SM BKN080
     FM252300 26004KT P6SM BKN080 PROB30 2605/2609 4SM -TSRA
      OVC035CB=

USA.gov is the U.S. government's official web portal to all federal, state and local government web resources and services.